Time;durP1;ratioP1;P1;durP2;ratioP2;P2;SDS_P1;SDS_P2;PMS_P1;PMS_P2;Temp;Humidity;BMP_temperature;BMP_pressure;BME280_temperature;BME280_humidity;BME280_pressure;Samples;Min_cycle;Max_cycle;Signal;HPM_P1;HPM_P2
2022/04/07 00:01:20;;;;;;;11.27;4.62;;;;;;;8.33;75.58;98895.13;4518171;31;20137;-71
2022/04/07 00:03:54;;;;;;;28.62;15.73;;;;;;;8.29;75.23;98888.22;4518070;31;20168;-71
2022/04/07 00:06:21;;;;;;;30.70;13.27;;;;;;;8.23;76.46;98894.50;4518042;31;20362;-71
2022/04/07 00:08:49;;;;;;;23.35;12.57;;;;;;;8.24;75.70;98892.75;4518043;31;20094;-71
2022/04/07 00:11:16;;;;;;;29.17;11.35;;;;;;;8.06;76.54;98884.47;4517770;31;20503;-71
2022/04/07 00:13:44;;;;;;;12.05;8.43;;;;;;;8.06;75.73;98881.84;4517895;31;20095;-71
2022/04/07 00:16:11;;;;;;;12.25;6.32;;;;;;;7.99;77.03;98875.03;4518305;31;20494;-71
2022/04/07 00:18:39;;;;;;;11.73;6.10;;;;;;;7.87;78.21;98873.56;4503423;31;20435;-71
2022/04/07 00:21:06;;;;;;;8.88;5.00;;;;;;;7.88;77.14;98877.06;4518337;31;20142;-71
2022/04/07 00:23:34;;;;;;;7.03;4.40;;;;;;;7.85;77.34;98872.75;4518019;31;20463;-71
2022/04/07 00:26:01;;;;;;;13.70;8.82;;;;;;;7.83;76.98;98865.81;4518047;31;20107;-71
2022/04/07 00:28:28;;;;;;;11.32;6.07;;;;;;;7.84;77.38;98864.91;4517971;31;20105;-71
2022/04/07 00:30:58;;;;;;;9.57;5.05;;;;;;;7.92;76.26;98864.75;4517854;31;20095;-71
2022/04/07 00:33:25;;;;;;;11.68;5.55;;;;;;;7.97;75.79;98862.84;4517683;31;20123;-71
2022/04/07 00:35:52;;;;;;;6.85;4.72;;;;;;;7.95;75.48;98856.75;4517900;31;20094;-71
2022/04/07 00:38:19;;;;;;;8.43;6.37;;;;;;;7.96;75.55;98854.12;4518012;31;20151;-72
2022/04/07 00:40:46;;;;;;;12.48;8.02;;;;;;;7.85;77.54;98851.78;4517878;31;20570;-71
2022/04/07 00:43:34;;;;;;;7.55;5.35;;;;;;;7.76;78.24;98844.13;4517957;31;20170;-71
2022/04/07 00:46:03;;;;;;;7.47;5.30;;;;;;;7.72;78.47;98839.00;4517861;31;20090;-71
2022/04/07 00:48:35;;;;;;;11.15;4.80;;;;;;;7.81;76.93;98833.50;4517685;31;20146;-71
2022/04/07 00:51:05;;;;;;;6.85;4.00;;;;;;;7.82;77.87;98837.88;4517726;31;20526;-71
2022/04/07 00:53:32;;;;;;;12.27;4.53;;;;;;;7.80;76.85;98829.19;4517549;31;20095;-71
2022/04/07 00:56:01;;;;;;;5.28;4.35;;;;;;;7.65;79.59;98826.03;4517726;31;20543;-71
2022/04/07 00:58:29;;;;;;;5.65;3.65;;;;;;;7.60;78.94;98827.94;4517614;31;20083;-71
2022/04/07 01:00:57;;;;;;;9.20;4.12;;;;;;;7.71;76.92;98821.56;4517679;31;20183;-71
2022/04/07 01:03:27;;;;;;;5.72;3.50;;;;;;;7.78;76.06;98825.75;4517712;31;20092;-71
2022/04/07 01:05:54;;;;;;;10.98;4.07;;;;;;;7.92;75.34;98820.16;4517763;31;20111;-71
2022/04/07 01:08:22;;;;;;;6.82;4.35;;;;;;;8.01;74.30;98820.75;4517570;31;20079;-71
2022/04/07 01:10:49;;;;;;;6.72;3.53;;;;;;;8.04;73.84;98814.56;4517762;31;20091;-71
2022/04/07 01:13:19;;;;;;;6.40;3.53;;;;;;;7.99;75.29;98819.09;4517522;31;20428;-72
2022/04/07 01:15:46;;;;;;;5.50;3.53;;;;;;;8.12;73.42;98816.06;4517526;31;20086;-71
2022/04/07 01:18:14;;;;;;;5.20;3.62;;;;;;;8.25;73.10;98813.13;4517565;31;20454;-71
2022/04/07 01:20:41;;;;;;;6.15;3.08;;;;;;;8.32;72.44;98815.53;4517804;31;20399;-71
2022/04/07 01:23:09;;;;;;;5.60;3.60;;;;;;;8.45;71.45;98810.00;4517303;31;20198;-71
2022/04/07 01:25:36;;;;;;;4.93;3.50;;;;;;;8.55;70.82;98796.56;4516240;31;20106;-71
2022/04/07 01:28:04;;;;;;;8.02;3.53;;;;;;;8.67;70.61;98789.22;4517304;31;20099;-71
2022/04/07 01:30:31;;;;;;;5.35;3.72;;;;;;;8.77;70.99;98786.28;4517348;31;20114;-71
2022/04/07 01:33:00;;;;;;;6.97;3.78;;;;;;;8.74;69.95;98783.72;4517147;31;20131;-71
2022/04/07 01:35:29;;;;;;;7.25;3.47;;;;;;;8.77;69.61;98782.78;4517328;31;20103;-71
2022/04/07 01:37:59;;;;;;;5.85;3.50;;;;;;;8.87;69.23;98784.22;4502340;31;20356;-71
2022/04/07 01:40:29;;;;;;;7.82;3.72;;;;;;;8.93;68.63;98777.91;4516950;31;20099;-71
2022/04/07 01:42:57;;;;;;;9.85;3.55;;;;;;;8.97;68.16;98783.00;4517032;31;20154;-71
2022/04/07 01:45:26;;;;;;;6.12;3.60;;;;;;;9.03;67.90;98785.47;4516941;31;20083;-71
2022/04/07 01:47:54;;;;;;;8.68;3.67;;;;;;;9.05;67.88;98788.06;4516812;31;20542;-71
2022/04/07 01:50:24;;;;;;;5.50;3.37;;;;;;;9.05;67.44;98794.16;4516825;31;20095;-71
2022/04/07 01:52:51;;;;;;;5.50;3.70;;;;;;;8.97;67.62;98782.16;4516905;31;20096;-71
2022/04/07 01:55:19;;;;;;;5.28;3.30;;;;;;;8.90;69.93;98775.38;4516635;31;20151;-71
2022/04/07 01:57:48;;;;;;;5.20;3.47;;;;;;;8.83;69.73;98778.22;4516898;31;20487;-71
2022/04/07 02:00:16;;;;;;;5.20;2.90;;;;;;;8.90;68.96;98773.59;4516762;31;20131;-71
2022/04/07 02:02:45;;;;;;;4.25;3.10;;;;;;;8.92;68.80;98773.56;4516622;31;20119;-71
2022/04/07 02:05:13;;;;;;;7.60;2.83;;;;;;;8.87;69.00;98765.84;4517037;31;20190;-71
2022/04/07 02:07:42;;;;;;;3.47;3.05;;;;;;;8.83;69.47;98758.94;4516770;31;20099;-71
2022/04/07 02:10:14;;;;;;;6.28;3.35;;;;;;;8.80;69.68;98751.19;4516772;31;20825;-71
2022/04/07 02:12:42;;;;;;;5.25;3.22;;;;;;;8.78;70.35;98747.72;4516469;31;20733;-71
2022/04/07 02:15:12;;;;;;;6.15;2.83;;;;;;;8.76;69.51;98746.91;4516747;31;20087;-71
2022/04/07 02:17:39;;;;;;;5.50;3.22;;;;;;;8.73;70.05;98734.75;4516447;31;20087;-71
2022/04/07 02:20:09;;;;;;;3.45;3.05;;;;;;;8.75;70.29;98729.44;4516306;31;20490;-71
2022/04/07 02:22:37;;;;;;;5.43;3.00;;;;;;;8.71;71.25;98719.94;4516455;31;20549;-71
2022/04/07 02:25:05;;;;;;;4.90;3.20;;;;;;;8.61;70.84;98720.22;4516636;31;20120;-71
2022/04/07 02:27:36;;;;;;;6.75;3.50;;;;;;;8.51;72.08;98716.16;4516277;31;20087;-71
2022/04/07 02:30:13;;;;;;;9.48;3.85;;;;;;;8.32;75.28;98710.56;4516538;31;20091;-71
2022/04/07 02:32:42;;;;;;;6.93;3.90;;;;;;;8.08;77.47;98706.88;4516441;31;20107;-71
2022/04/07 02:35:11;;;;;;;10.05;4.00;;;;;;;7.92;77.43;98697.75;4516309;31;20131;-72
2022/04/07 02:37:39;;;;;;;6.10;4.25;;;;;;;7.80;78.46;98690.22;4518402;31;20155;-71
2022/04/07 02:40:07;;;;;;;4.87;3.47;;;;;;;7.77;77.90;98685.91;4518434;31;20095;-71
2022/04/07 02:42:35;;;;;;;6.30;3.37;;;;;;;7.78;76.23;98684.16;4518733;31;20896;-71
2022/04/07 02:45:03;;;;;;;6.47;4.10;;;;;;;7.73;76.31;98686.91;4518491;31;20451;-71
2022/04/07 02:47:35;;;;;;;9.00;4.10;;;;;;;7.68;78.31;98698.44;4518396;31;20080;-71
2022/04/07 02:50:03;;;;;;;5.47;3.78;;;;;;;7.61;78.56;98689.87;4518480;31;20096;-71
2022/04/07 02:52:30;;;;;;;5.05;3.75;;;;;;;7.54;79.74;98688.31;4518446;31;20092;-71
2022/04/07 02:54:57;;;;;;;6.30;3.83;;;;;;;7.46;79.54;98679.81;4518256;31;20545;-71
2022/04/07 02:57:25;;;;;;;7.47;3.92;;;;;;;7.42;79.64;98673.78;4518428;31;20170;-71
2022/04/07 02:59:52;;;;;;;6.07;4.35;;;;;;;7.38;79.57;98670.34;4518541;31;20087;-72
2022/04/07 03:02:19;;;;;;;8.27;3.95;;;;;;;7.39;80.88;98673.88;4518160;31;20107;-71
2022/04/07 03:04:47;;;;;;;6.10;4.25;;;;;;;7.39;79.73;98669.47;4518259;31;20115;-71
2022/04/07 03:07:14;;;;;;;12.18;4.47;;;;;;;7.38;81.74;98664.25;4518248;31;20394;-71
2022/04/07 03:09:42;;;;;;;6.72;3.58;;;;;;;7.33;80.62;98653.06;4518597;31;20083;-71
2022/04/07 03:12:10;;;;;;;5.75;3.90;;;;;;;7.34;80.44;98649.53;4518332;31;20168;-71
2022/04/07 03:14:37;;;;;;;7.53;3.90;;;;;;;7.34;81.67;98650.38;4518119;31;20530;-71
2022/04/07 03:17:04;;;;;;;7.53;4.78;;;;;;;7.28;81.91;98647.06;4518196;31;20360;-71
2022/04/07 03:19:32;;;;;;;7.35;4.35;;;;;;;7.28;81.76;98641.81;4503076;31;20099;-71
2022/04/07 03:21:59;;;;;;;8.25;4.50;;;;;;;7.27;82.14;98634.88;4518242;31;20095;-71
2022/04/07 03:24:26;;;;;;;10.65;4.32;;;;;;;7.29;82.53;98633.09;4518152;31;20488;-71
2022/04/07 03:27:06;;;;;;;8.30;4.03;;;;;;;7.28;81.70;98631.34;4518241;31;20088;-72
2022/04/07 03:29:34;;;;;;;7.50;4.50;;;;;;;7.39;81.00;98638.03;4518189;31;20498;-71
2022/04/07 03:32:04;;;;;;;5.82;4.20;;;;;;;7.41;81.85;98630.97;4518074;31;20145;-71
2022/04/07 03:34:33;;;;;;;4.55;3.85;;;;;;;7.53;80.75;98631.56;4517967;31;20166;-71
2022/04/07 03:37:01;;;;;;;7.90;4.93;;;;;;;7.59;80.95;98621.75;4518184;31;20083;-71
2022/04/07 03:39:29;;;;;;;16.33;6.85;;;;;;;7.73;79.09;98630.97;4518151;31;20190;-71
2022/04/07 03:41:57;;;;;;;11.48;5.05;;;;;;;7.85;78.18;98630.66;4518028;31;20143;-71
2022/04/07 03:44:24;;;;;;;9.32;4.62;;;;;;;8.04;76.87;98628.34;4518266;31;20364;-71
2022/04/07 03:46:52;;;;;;;9.50;4.18;;;;;;;8.27;75.61;98627.63;4517574;31;20109;-71
2022/04/07 03:49:20;;;;;;;4.93;3.65;;;;;;;8.51;74.05;98624.28;4517769;31;20192;-71
2022/04/07 03:51:47;;;;;;;7.10;4.95;;;;;;;8.56;73.67;98622.37;4517786;31;20095;-71
2022/04/07 03:54:17;;;;;;;9.32;3.83;;;;;;;8.61;73.63;98609.09;4518002;31;20111;-71
2022/04/07 03:56:45;;;;;;;12.73;3.90;;;;;;;8.70;73.06;98607.97;4518422;31;20158;-71
2022/04/07 03:59:12;;;;;;;7.12;4.40;;;;;;;8.64;73.44;98608.16;4518554;31;20103;-71
2022/04/07 04:01:40;;;;;;;7.30;4.32;;;;;;;8.60;73.35;98604.75;4518194;31;20119;-71
2022/04/07 04:04:08;;;;;;;8.25;4.57;;;;;;;8.61;73.49;98599.44;4517804;31;20580;-71
2022/04/07 04:06:35;;;;;;;7.15;3.92;;;;;;;8.63;73.13;98599.41;4517856;31;20181;-71
2022/04/07 04:09:02;;;;;;;16.45;4.75;;;;;;;8.60;73.10;98604.75;4518434;31;20435;-71
2022/04/07 04:11:30;;;;;;;10.88;4.65;;;;;;;8.58;73.30;98614.44;4502988;31;20104;-71
2022/04/07 04:13:57;;;;;;;8.48;4.32;;;;;;;8.53;73.56;98605.87;4518216;31;20584;-71
2022/04/07 04:16:24;;;;;;;8.38;4.10;;;;;;;8.45;73.60;98611.38;4517517;31;20418;-71
2022/04/07 04:18:52;;;;;;;9.20;4.28;;;;;;;8.36;74.07;98611.59;4517552;31;20161;-71
2022/04/07 04:21:19;;;;;;;9.05;4.45;;;;;;;8.29;75.28;98612.72;4518637;31;20147;-71
2022/04/07 04:23:48;;;;;;;19.30;4.28;;;;;;;8.26;75.66;98612.81;4518561;31;20130;-71
2022/04/07 04:26:15;;;;;;;6.30;3.80;;;;;;;8.33;75.42;98606.44;4517713;31;20159;-71
2022/04/07 04:28:42;;;;;;;11.02;5.78;;;;;;;8.36;74.53;98606.37;4517605;31;20087;-71
2022/04/07 04:31:09;;;;;;;8.18;5.85;;;;;;;8.51;74.41;98613.78;4517645;31;20095;-70
2022/04/07 04:33:37;;;;;;;9.90;5.62;;;;;;;8.58;73.78;98602.16;4517613;31;20453;-70
2022/04/07 04:36:04;;;;;;;10.05;4.03;;;;;;;8.66;73.47;98595.81;4517578;31;20087;-70
2022/04/07 04:38:32;;;;;;;7.32;4.90;;;;;;;8.67;73.17;98593.16;4518339;31;20092;-70
2022/04/07 04:40:59;;;;;;;7.90;4.12;;;;;;;8.76;73.07;98594.59;4503257;31;20171;-70
2022/04/07 04:43:26;;;;;;;13.02;4.30;;;;;;;8.85;72.12;98596.94;4517615;31;20126;-70
2022/04/07 04:45:53;;;;;;;19.45;4.85;;;;;;;8.95;71.62;98594.88;4517527;31;20106;-70
2022/04/07 04:48:21;;;;;;;7.68;4.00;;;;;;;9.04;71.74;98594.53;4517482;31;20083;-70
2022/04/07 04:50:48;;;;;;;5.90;3.60;;;;;;;9.19;71.29;98595.78;4518038;31;20497;-70
2022/04/07 04:53:16;;;;;;;9.43;4.00;;;;;;;9.24;71.09;98599.97;4518448;31;20810;-70
2022/04/07 04:55:43;;;;;;;5.25;4.22;;;;;;;9.33;70.78;98604.06;4518182;31;20108;-70
2022/04/07 04:58:10;;;;;;;7.82;4.22;;;;;;;9.44;70.20;98607.16;4518038;31;20084;-70
2022/04/07 05:00:38;;;;;;;6.65;4.43;;;;;;;9.53;70.17;98609.44;4518240;31;20100;-71
2022/04/07 05:03:05;;;;;;;6.43;3.95;;;;;;;9.56;69.86;98604.06;4518127;31;20485;-70
2022/04/07 05:05:32;;;;;;;5.25;3.72;;;;;;;9.58;69.76;98612.78;4517948;31;20162;-70
2022/04/07 05:08:00;;;;;;;8.23;4.12;;;;;;;9.66;69.53;98607.22;4518328;31;20123;-71
2022/04/07 05:10:27;;;;;;;6.93;4.55;;;;;;;9.72;69.29;98600.91;4518020;31;20191;-70
2022/04/07 05:12:54;;;;;;;8.35;4.45;;;;;;;9.79;69.29;98592.72;4517914;31;20129;-70
2022/04/07 05:15:21;;;;;;;15.98;4.70;;;;;;;9.87;69.03;98607.34;4518136;31;20079;-71
2022/04/07 05:17:49;;;;;;;8.85;5.00;;;;;;;9.90;68.87;98599.34;4518098;31;20092;-70
2022/04/07 05:20:16;;;;;;;9.05;4.57;;;;;;;10.00;68.69;98604.22;4517882;31;20581;-71
2022/04/07 05:22:44;;;;;;;8.68;4.80;;;;;;;10.11;68.50;98601.16;4518064;31;20167;-71
2022/04/07 05:25:11;;;;;;;10.35;4.32;;;;;;;10.20;67.65;98610.47;4518053;31;20105;-71
2022/04/07 05:27:39;;;;;;;9.63;5.57;;;;;;;10.23;67.64;98616.47;4517968;31;20095;-70
2022/04/07 05:30:08;;;;;;;7.87;4.25;;;;;;;10.36;66.87;98622.16;4517921;31;20155;-71
2022/04/07 05:32:35;;;;;;;6.25;4.07;;;;;;;10.44;66.55;98627.97;4517852;31;20502;-71
2022/04/07 05:35:03;;;;;;;16.15;5.00;;;;;;;10.56;66.44;98642.41;4517877;31;20078;-71
2022/04/07 05:37:30;;;;;;;19.80;5.57;;;;;;;10.63;65.49;98650.94;4517660;31;20118;-71
2022/04/07 05:39:57;;;;;;;13.82;4.93;;;;;;;10.70;65.67;98660.31;4517028;31;20702;-72
2022/04/07 05:42:30;;;;;;;34.35;8.50;;;;;;;10.77;65.65;98661.78;4516691;31;20458;-72
2022/04/07 05:44:58;;;;;;;11.20;5.62;;;;;;;10.83;65.46;98656.28;4516447;31;20586;-72
2022/04/07 05:47:25;;;;;;;21.98;5.78;;;;;;;10.91;65.36;98659.44;4516813;31;20083;-70
2022/04/07 05:49:56;;;;;;;40.28;7.12;;;;;;;11.04;64.95;98667.72;4516422;31;20092;-70
2022/04/07 05:52:23;;;;;;;19.77;6.53;;;;;;;11.09;65.62;98664.88;4516742;31;20493;-69
2022/04/07 05:54:50;;;;;;;24.20;6.72;;;;;;;11.14;65.47;98668.19;4516259;31;20134;-69
2022/04/07 05:57:17;;;;;;;13.60;5.55;;;;;;;11.24;65.06;98672.16;4515802;31;20213;-70
2022/04/07 05:59:45;;;;;;;11.98;5.90;;;;;;;11.35;64.00;98679.62;4516713;31;20797;-70
2022/04/07 06:02:12;;;;;;;24.75;7.03;;;;;;;11.46;65.05;98680.88;4517240;31;20505;-70
2022/04/07 06:04:41;;;;;;;19.20;7.03;;;;;;;11.49;65.72;98680.75;4517266;31;20204;-70
2022/04/07 06:07:08;;;;;;;16.98;6.30;;;;;;;11.41;65.14;98677.59;4517188;31;20422;-70
2022/04/07 06:09:35;;;;;;;16.45;6.90;;;;;;;11.43;64.93;98681.00;4517431;31;20166;-70
2022/04/07 06:12:03;;;;;;;13.38;6.90;;;;;;;11.51;64.74;98674.53;4519186;31;20099;-70
2022/04/07 06:14:30;;;;;;;16.08;7.53;;;;;;;11.56;64.63;98681.34;4519630;31;20932;-71
2022/04/07 06:16:57;;;;;;;14.23;7.12;;;;;;;11.61;64.57;98675.84;4516046;31;20138;-72
2022/04/07 06:19:25;;;;;;;23.30;10.18;;;;;;;11.66;65.91;98677.38;4509920;31;20111;-71
2022/04/07 06:21:52;;;;;;;19.12;6.50;;;;;;;11.71;65.21;98677.19;4509606;31;20150;-71
2022/04/07 06:24:20;;;;;;;10.88;5.78;;;;;;;11.74;65.89;98679.69;4510568;31;20502;-71
2022/04/07 06:26:49;;;;;;;12.85;5.35;;;;;;;11.77;65.64;98683.97;4506603;31;20084;-71
2022/04/07 06:29:16;;;;;;;14.38;6.20;;;;;;;11.81;66.27;98689.03;4503410;31;20088;-70
2022/04/07 06:31:43;;;;;;;16.70;6.18;;;;;;;11.86;65.46;98689.72;4488836;31;20789;-70
2022/04/07 06:34:20;;;;;;;9.73;6.00;;;;;;;11.87;64.60;98690.56;4503173;31;20150;-71
2022/04/07 06:36:47;;;;;;;11.52;6.65;;;;;;;11.98;63.06;98692.72;4503271;31;20148;-70
2022/04/07 06:39:15;;;;;;;15.73;6.07;;;;;;;12.06;63.30;98695.91;4503281;31;20633;-70
2022/04/07 06:41:42;;;;;;;12.27;5.47;;;;;;;12.09;62.88;98695.78;4503491;31;20422;-72
2022/04/07 06:44:09;;;;;;;8.45;5.60;;;;;;;12.25;62.04;98704.69;4488693;31;20113;-70
2022/04/07 06:46:37;;;;;;;10.27;5.97;;;;;;;12.33;60.86;98704.34;4503333;31;20118;-72
2022/04/07 06:49:05;;;;;;;9.30;6.80;;;;;;;12.32;61.43;98698.22;4503082;31;20095;-71
2022/04/07 06:51:32;;;;;;;10.35;5.55;;;;;;;12.40;60.94;98706.66;4502077;31;20452;-71
2022/04/07 06:53:59;;;;;;;19.42;6.43;;;;;;;12.44;61.31;98704.72;4503310;31;20450;-71
2022/04/07 06:56:26;;;;;;;10.15;5.70;;;;;;;12.54;61.71;98713.06;4503180;31;20187;-71
2022/04/07 06:58:54;;;;;;;9.85;5.70;;;;;;;12.72;60.55;98709.59;4503182;31;20176;-71
2022/04/07 07:01:22;;;;;;;12.65;5.15;;;;;;;12.76;60.16;98703.22;4503024;31;20980;-71
2022/04/07 07:03:49;;;;;;;8.55;5.20;;;;;;;12.79;59.38;98697.78;4502978;31;20095;-71
2022/04/07 07:06:16;;;;;;;15.55;4.82;;;;;;;12.80;59.46;98701.28;4502880;31;20088;-70
2022/04/07 07:08:43;;;;;;;8.15;4.70;;;;;;;12.84;59.75;98705.50;4502963;31;20127;-70
2022/04/07 07:11:11;;;;;;;7.25;5.50;;;;;;;12.92;58.31;98704.19;4502931;31;20107;-71
2022/04/07 07:13:38;;;;;;;13.82;4.97;;;;;;;12.96;58.25;98702.25;4503166;31;20110;-70
2022/04/07 07:16:05;;;;;;;14.30;5.15;;;;;;;13.06;57.52;98705.31;4502973;31;20114;-70
2022/04/07 07:18:33;;;;;;;19.33;5.68;;;;;;;13.11;57.25;98719.16;4502935;31;20111;-70
2022/04/07 07:21:00;;;;;;;7.15;5.50;;;;;;;13.18;57.15;98709.12;4503145;31;20233;-70
2022/04/07 07:23:27;;;;;;;5.78;5.22;;;;;;;13.23;57.06;98707.97;4501590;31;20079;-71
2022/04/07 07:25:54;;;;;;;10.00;5.82;;;;;;;13.31;57.04;98711.13;4502139;31;20110;-71
2022/04/07 07:28:21;;;;;;;10.07;5.87;;;;;;;13.36;56.90;98702.97;4501648;31;20100;-70
2022/04/07 07:30:48;;;;;;;10.18;5.28;;;;;;;13.49;57.08;98703.19;4502345;31;20099;-70
2022/04/07 07:33:16;;;;;;;8.02;5.25;;;;;;;13.64;56.17;98707.72;4502668;31;20084;-70
2022/04/07 07:35:45;;;;;;;8.25;4.95;;;;;;;13.83;55.30;98705.81;4501278;31;20118;-70
2022/04/07 07:38:12;;;;;;;12.75;5.28;;;;;;;13.87;55.10;98701.22;4511617;31;20143;-70
2022/04/07 07:40:40;;;;;;;8.05;4.97;;;;;;;14.00;55.59;98691.72;4509309;31;20125;-71
2022/04/07 07:43:07;;;;;;;19.48;5.80;;;;;;;14.07;53.67;98700.19;4517692;31;20090;-71
2022/04/07 07:45:35;;;;;;;6.37;4.85;;;;;;;14.06;54.09;98702.00;4518659;31;20083;-72
2022/04/07 07:48:28;;;;;;;12.73;5.23;;;;;;;14.06;54.55;98709.94;4518599;31;20084;-71
2022/04/07 07:50:56;;;;;;;9.40;4.97;;;;;;;14.11;53.74;98709.69;4518509;31;20500;-71
2022/04/07 07:53:24;;;;;;;9.35;6.07;;;;;;;14.33;53.99;98712.87;4518632;31;20701;-70
2022/04/07 07:55:53;;;;;;;13.23;5.78;;;;;;;14.31;53.85;98714.78;4511220;31;20091;-70
2022/04/07 07:58:23;;;;;;;8.65;6.00;;;;;;;14.29;54.08;98716.62;4502373;31;20504;-71
2022/04/07 08:00:51;;;;;;;10.80;5.97;;;;;;;14.26;54.28;98714.16;4502604;31;20121;-72
2022/04/07 08:03:19;;;;;;;10.27;5.28;;;;;;;14.43;54.27;98715.03;4504681;31;20795;-71
2022/04/07 08:05:46;;;;;;;10.75;5.37;;;;;;;14.37;54.57;98712.72;4509631;31;20126;-72
2022/04/07 08:08:14;;;;;;;10.07;5.35;;;;;;;14.40;53.96;98713.41;4507132;31;20125;-72
2022/04/07 08:10:41;;;;;;;10.23;5.65;;;;;;;14.27;55.09;98718.50;4504641;31;20159;-71
2022/04/07 08:13:08;;;;;;;12.00;5.35;;;;;;;14.24;54.74;98710.75;4502449;31;20091;-72
2022/04/07 08:15:36;;;;;;;9.98;4.70;;;;;;;14.09;54.65;98715.03;4502363;31;20118;-72
2022/04/07 08:18:04;;;;;;;10.85;4.78;;;;;;;14.31;53.58;98714.78;4502495;31;20166;-72
2022/04/07 08:20:32;;;;;;;11.35;4.97;;;;;;;14.27;53.50;98709.72;4487466;31;20928;-71
2022/04/07 08:22:59;;;;;;;13.68;4.90;;;;;;;14.24;53.85;98717.81;4502304;31;20092;-72
2022/04/07 08:25:26;;;;;;;12.63;5.43;;;;;;;14.21;54.52;98718.00;4504383;31;20170;-71
2022/04/07 08:27:53;;;;;;;11.07;5.03;;;;;;;14.38;53.58;98720.59;4507306;31;20095;-71
2022/04/07 08:30:20;;;;;;;8.82;4.62;;;;;;;14.41;53.25;98720.41;4506740;31;20120;-70
2022/04/07 08:32:48;;;;;;;11.60;4.97;;;;;;;14.48;52.66;98723.59;4509038;31;20072;-70
2022/04/07 08:35:15;;;;;;;5.93;4.85;;;;;;;14.69;52.65;98729.56;4515941;31;20114;-71
2022/04/07 08:37:42;;;;;;;10.32;4.30;;;;;;;14.75;51.62;98734.53;4516319;31;20095;-71
2022/04/07 08:40:10;;;;;;;6.95;4.82;;;;;;;14.78;51.05;98737.00;4502255;31;20099;-71
2022/04/07 08:42:37;;;;;;;9.95;4.57;;;;;;;14.71;52.04;98728.53;4502303;31;20088;-72
2022/04/07 08:45:05;;;;;;;7.12;4.62;;;;;;;14.60;51.81;98732.72;4506626;31;20103;-71
2022/04/07 08:47:33;;;;;;;6.97;3.78;;;;;;;14.67;52.11;98731.44;4510833;31;20753;-71
2022/04/07 08:50:03;;;;;;;10.32;6.18;;;;;;;14.74;51.37;98722.22;4507702;31;20133;-70
2022/04/07 08:52:32;;;;;;;12.93;6.20;;;;;;;14.79;51.28;98721.00;4514137;31;20118;-71
2022/04/07 08:54:59;;;;;;;9.13;6.03;;;;;;;14.80;51.49;98713.91;4501396;31;20118;-72
2022/04/07 08:57:29;;;;;;;15.95;5.87;;;;;;;14.80;51.80;98717.41;4516789;31;20138;-71
2022/04/07 08:59:57;;;;;;;10.65;6.03;;;;;;;14.92;52.40;98709.72;4507107;31;20431;-71
2022/04/07 09:02:24;;;;;;;13.07;6.53;;;;;;;14.96;52.26;98712.09;4504087;31;20083;-71
2022/04/07 09:05:00;;;;;;;10.50;6.72;;;;;;;15.14;51.35;98706.69;4513655;31;20095;-72
2022/04/07 09:07:32;;;;;;;9.77;6.30;;;;;;;15.25;51.85;98709.59;4514829;31;20706;-71
2022/04/07 09:10:01;;;;;;;12.05;6.65;;;;;;;15.39;51.57;98706.13;4514741;31;20091;-71
2022/04/07 09:12:28;;;;;;;7.53;6.22;;;;;;;15.40;52.00;98706.03;4510781;31;20746;-71
2022/04/07 09:14:57;;;;;;;10.23;5.60;;;;;;;15.48;51.51;98705.59;4508588;31;20103;-71
2022/04/07 09:17:26;;;;;;;9.77;6.43;;;;;;;15.55;51.04;98701.66;4516568;31;20152;-71
2022/04/07 09:19:53;;;;;;;13.82;7.50;;;;;;;15.60;51.22;98702.22;4516905;31;20126;-70
2022/04/07 09:22:31;;;;;;;16.67;7.32;;;;;;;15.99;50.10;98698.16;4514213;31;20125;-70
2022/04/07 09:25:05;;;;;;;8.90;6.40;;;;;;;16.47;48.99;98693.41;4507022;31;20075;-72
2022/04/07 09:27:32;;;;;;;8.43;6.35;;;;;;;16.95;47.39;98702.72;4517759;31;20126;-73
2022/04/07 09:30:00;;;;;;;9.65;5.50;;;;;;;16.96;46.74;98688.50;4517469;31;20151;-72
2022/04/07 09:32:28;;;;;;;9.20;5.20;;;;;;;17.12;47.18;98693.66;4517394;31;20082;-73
2022/04/07 09:35:00;;;;;;;13.65;8.00;;;;;;;17.37;45.94;98694.69;4511157;31;20087;-73
2022/04/07 09:37:30;;;;;;;12.55;8.07;;;;;;;17.52;45.06;98687.47;4501324;31;20130;-73
2022/04/07 09:40:16;;;;;;;17.60;7.93;;;;;;;17.40;44.91;98679.38;4488114;31;20769;-73
2022/04/07 09:42:43;;;;;;;13.60;8.52;;;;;;;17.17;46.40;98677.38;4514486;31;20094;-72
2022/04/07 09:45:12;;;;;;;20.02;12.98;;;;;;;16.86;47.95;98684.72;4512205;31;20104;-73
2022/04/07 09:47:45;;;;;;;16.62;8.60;;;;;;;16.46;48.66;98681.91;4503636;31;20104;-70
2022/04/07 09:50:32;;;;;;;14.60;11.18;;;;;;;16.44;48.83;98690.94;4511120;31;20091;-73
2022/04/07 09:53:03;;;;;;;47.70;24.25;;;;;;;16.48;48.20;98682.66;4501546;31;20094;-72
2022/04/07 09:55:40;;;;;;;14.50;8.43;;;;;;;16.59;47.91;98681.13;4507977;31;20107;-72
2022/04/07 09:58:10;;;;;;;18.23;10.85;;;;;;;17.13;46.21;98675.87;4509128;31;20163;-72
2022/04/07 10:00:38;;;;;;;27.27;15.00;;;;;;;17.55;45.44;98677.47;4511977;31;20111;-73
2022/04/07 10:03:08;;;;;;;14.70;8.98;;;;;;;17.34;45.67;98673.59;4507558;31;20543;-73
2022/04/07 10:05:37;;;;;;;9.27;5.95;;;;;;;17.26;44.85;98665.28;4507269;31;20539;-72
2022/04/07 10:08:06;;;;;;;27.55;13.85;;;;;;;17.53;47.29;98662.59;4501903;31;20151;-75
2022/04/07 10:10:35;;;;;;;12.93;6.00;;;;;;;17.87;44.50;98669.13;4505775;31;20147;-73
2022/04/07 10:13:03;;;;;;;22.30;10.68;;;;;;;18.06;45.24;98661.56;4516465;31;20101;-73
2022/04/07 10:15:31;;;;;;;14.05;7.68;;;;;;;18.28;42.67;98660.91;4507588;31;20095;-73
2022/04/07 10:18:04;;;;;;;15.38;8.57;;;;;;;18.40;41.59;98664.50;4502550;31;20502;-72
2022/04/07 10:20:37;;;;;;;8.90;6.28;;;;;;;18.17;43.08;98666.16;4510292;31;20973;-72
2022/04/07 10:23:34;;;;;;;10.82;6.60;;;;;;;18.62;42.65;98663.81;4508541;31;20727;-73
2022/04/07 10:26:02;;;;;;;18.17;10.30;;;;;;;19.22;41.02;98657.66;4503120;31;20162;-73
2022/04/07 10:28:30;;;;;;;11.18;7.28;;;;;;;19.09;41.53;98652.34;4499376;31;20151;-73
2022/04/07 10:31:11;;;;;;;10.75;5.60;;;;;;;19.50;41.82;98647.53;4499640;31;20489;-73
2022/04/07 10:33:40;;;;;;;9.00;4.18;;;;;;;19.78;39.34;98638.25;4502322;31;20396;-73
2022/04/07 10:36:15;;;;;;;15.68;7.82;;;;;;;19.52;39.38;98632.25;4506694;31;20187;-73
2022/04/07 10:38:45;;;;;;;11.68;5.68;;;;;;;19.46;39.60;98632.69;4509091;31;20152;-72
2022/04/07 10:41:32;;;;;;;21.85;12.30;;;;;;;19.52;39.25;98627.75;4507074;31;20111;-73
2022/04/07 10:44:17;;;;;;;9.43;5.75;;;;;;;19.76;40.10;98625.03;4505804;31;20487;-72
2022/04/07 10:46:44;;;;;;;6.93;4.07;;;;;;;19.62;38.41;98619.88;4503021;31;20079;-72
2022/04/07 10:49:22;;;;;;;7.97;4.50;;;;;;;19.76;39.32;98617.03;4500314;31;20172;-72
2022/04/07 10:51:54;;;;;;;10.07;3.60;;;;;;;20.52;37.58;98622.63;4500873;31;20100;-71
2022/04/07 10:54:24;;;;;;;6.45;3.37;;;;;;;20.94;36.08;98622.78;4500590;31;20148;-70
2022/04/07 10:56:53;;;;;;;10.43;3.92;;;;;;;21.48;37.13;98608.44;4501088;31;20171;-72
2022/04/07 10:59:27;;;;;;;5.22;3.35;;;;;;;21.83;34.18;98609.91;4503147;31;20168;-72
2022/04/07 11:02:15;;;;;;;3.75;3.17;;;;;;;22.02;34.06;98609.19;4503160;31;20114;-73
2022/04/07 11:05:10;;;;;;;4.45;3.25;;;;;;;22.55;33.58;98614.34;4502972;31;20083;-73
2022/04/07 11:07:51;;;;;;;9.38;3.45;;;;;;;22.40;33.26;98609.38;4503230;31;20127;-72
2022/04/07 11:10:47;;;;;;;3.72;3.22;;;;;;;22.66;32.50;98603.50;4503061;31;20126;-71
2022/04/07 11:13:15;;;;;;;3.43;3.10;;;;;;;22.74;34.39;98602.81;4502998;31;20093;-72
2022/04/07 11:15:42;;;;;;;5.15;3.28;;;;;;;23.29;32.15;98600.47;4503108;31;20159;-70
2022/04/07 11:18:37;;;;;;;3.62;2.97;;;;;;;23.99;31.68;98595.66;4502424;31;20079;-71
2022/04/07 11:21:10;;;;;;;9.38;2.90;;;;;;;24.33;30.27;98599.50;4502511;31;20484;-71
2022/04/07 11:23:53;;;;;;;7.18;2.80;;;;;;;24.62;29.82;98601.19;4502959;31;20099;-71
2022/04/07 11:26:25;;;;;;;4.90;3.17;;;;;;;24.50;29.68;98600.56;4502848;31;20076;-71
2022/04/07 11:29:12;;;;;;;4.62;3.10;;;;;;;24.74;29.05;98605.41;4502937;31;20538;-71
2022/04/07 11:31:45;;;;;;;7.12;4.07;;;;;;;25.94;28.25;98594.16;4502831;31;20148;-71
2022/04/07 11:34:33;;;;;;;4.70;3.37;;;;;;;25.58;27.87;98601.47;4502740;31;20126;-71
2022/04/07 11:37:06;;;;;;;4.97;3.80;;;;;;;25.35;29.21;98598.44;4506199;31;20083;-70
2022/04/07 11:39:34;;;;;;;7.90;4.43;;;;;;;24.94;30.13;98594.47;4515364;31;20155;-70
2022/04/07 11:42:02;;;;;;;8.52;4.20;;;;;;;24.80;30.52;98593.16;4501762;31;20123;-71
2022/04/07 11:44:29;;;;;;;7.93;4.78;;;;;;;25.78;29.13;98587.78;4503863;31;20470;-71